createdAt,value
2018-06-24T03:52:10.678Z,66.80
2018-06-24T03:55:10.549Z,66.51
2018-06-24T04:51:55.889Z,66.44
2018-06-24T06:12:06.279Z,71.91
2018-06-24T06:54:26.438Z,70.56
2018-06-24T07:00:14.554Z,69.92
2018-06-24T07:04:54.437Z,69.52
2018-06-24T07:08:05.815Z,69.41
2018-06-24T07:35:03.627Z,68.16
2018-06-24T07:39:33.620Z,67.56
2018-06-24T08:00:12.934Z,64.67
2018-06-24T08:42:45.771Z,64.09
2018-06-24T09:03:59.753Z,62.93
2018-06-24T09:06:38.334Z,63.80
2018-06-24T09:09:14.714Z,65.25
2018-06-24T09:11:48.776Z,66.68
2018-06-24T09:14:25.659Z,68.04
2018-06-24T09:16:58.921Z,67.93
2018-06-24T09:19:32.876Z,68.26
2018-06-24T09:22:18.112Z,66.95
2018-06-24T09:24:51.356Z,65.31
2018-06-24T09:27:25.083Z,63.75
2018-06-24T09:30:21.071Z,62.73
2018-06-24T09:32:55.837Z,61.59
2018-06-24T09:35:28.897Z,62.22
2018-06-24T09:40:46.222Z,62.19
2018-06-24T09:43:31.667Z,62.06
2018-06-24T09:46:05.810Z,60.28
2018-06-24T09:51:22.962Z,60.38
2018-06-24T09:54:00.889Z,60.21
2018-06-24T09:56:44.572Z,60.63
2018-06-24T10:00:29.885Z,61.19
2018-06-24T10:03:05.660Z,59.86
2018-06-24T10:05:59.395Z,60.05
2018-06-24T10:08:52.949Z,60.32
2018-06-24T10:11:27.333Z,60.13
2018-06-24T10:14:11.542Z,59.20
2018-06-24T10:16:56.105Z,58.18
2018-06-24T10:19:32.308Z,57.00
2018-06-24T10:22:25.980Z,57.22
2018-06-24T10:25:02.655Z,57.15
2018-06-24T10:27:52.183Z,54.80
2018-06-24T10:31:03.912Z,55.76
2018-06-24T10:33:50.022Z,56.40
2018-06-24T10:42:02.372Z,55.25
2018-06-24T10:44:40.939Z,55.01
2018-06-24T10:47:16.329Z,54.40
2018-06-24T10:49:54.981Z,53.99
2018-06-24T10:52:30.251Z,54.12
2018-06-24T10:55:22.324Z,54.84
2018-06-24T11:08:03.626Z,56.19
2018-06-24T11:10:46.054Z,55.09
2018-06-24T11:13:40.741Z,55.12
2018-06-24T11:16:15.567Z,55.84
2018-06-24T11:24:38.341Z,55.60
2018-06-24T11:27:24.880Z,55.74
2018-06-24T11:30:12.331Z,55.39
2018-06-24T11:35:54.094Z,55.65
2018-06-24T11:41:24.595Z,53.81
2018-06-24T11:46:52.685Z,52.80
2018-06-24T11:49:45.712Z,53.03
2018-06-24T11:52:31.670Z,51.32
2018-06-24T11:55:07.006Z,49.73
2018-06-24T11:58:00.180Z,49.24
2018-06-24T12:00:49.370Z,48.17
2018-06-24T12:03:37.238Z,48.04
2018-06-24T12:12:52.427Z,45.62
2018-06-24T12:15:29.888Z,46.33
2018-06-24T12:18:04.372Z,46.23
2018-06-24T12:20:37.713Z,47.01
2018-06-24T12:23:14.499Z,46.96
2018-06-24T12:25:53.361Z,47.25
2018-06-24T12:31:24.081Z,48.61
2018-06-24T12:33:53.481Z,48.49
2018-06-24T12:36:36.333Z,48.03
2018-06-24T12:39:12.310Z,46.70
2018-06-24T12:41:48.443Z,47.93
2018-06-24T12:44:21.335Z,47.78
2018-06-24T12:46:54.235Z,47.62
2018-06-24T12:49:27.111Z,47.44
2018-06-24T12:52:09.098Z,46.81
2018-06-24T12:54:46.904Z,47.38
2018-06-24T12:57:20.278Z,46.54
2018-06-24T12:59:59.224Z,47.37
2018-06-24T13:02:39.550Z,45.12
2018-06-24T13:07:55.608Z,46.91
2018-06-24T13:10:44.190Z,47.24
2018-06-24T13:13:18.201Z,47.63
2018-06-24T13:15:55.598Z,46.61
2018-06-24T13:18:39.829Z,45.53
2018-06-24T13:21:14.760Z,46.63
2018-06-24T13:23:52.186Z,47.29
2018-06-24T13:26:26.300Z,48.07
2018-06-24T13:28:59.299Z,48.01
2018-06-24T13:31:34.707Z,48.65
2018-06-24T13:34:08.713Z,49.25
2018-06-24T13:36:41.914Z,48.60
2018-06-24T13:39:16.147Z,47.38
2018-06-24T13:41:57.862Z,46.71
2018-06-24T13:44:32.243Z,46.91
2018-06-24T13:47:16.713Z,46.28
2018-06-24T13:49:49.583Z,45.26
2018-06-24T13:52:34.015Z,44.33
2018-06-24T13:55:06.948Z,44.44
2018-06-24T13:57:41.271Z,44.75
2018-06-24T14:00:17.976Z,43.78
2018-06-24T14:03:03.943Z,43.47
2018-06-24T14:05:40.237Z,42.81
2018-06-24T14:08:19.893Z,43.18
2018-06-24T14:10:55.572Z,44.29
2018-06-24T14:13:31.679Z,43.42
2018-06-24T14:19:00.727Z,44.38
2018-06-24T14:21:35.041Z,44.64
2018-06-24T14:24:12.610Z,45.08
2018-06-24T14:26:50.968Z,44.80
2018-06-24T14:29:29.527Z,44.60
2018-06-24T14:32:09.329Z,45.01
2018-06-24T14:34:43.176Z,42.19
2018-06-24T14:37:17.395Z,42.83
2018-06-24T14:42:40.774Z,42.39
2018-06-24T14:45:15.008Z,42.48
2018-06-24T14:47:55.261Z,42.25
2018-06-24T14:50:42.163Z,42.25
2018-06-24T14:53:22.937Z,41.59
2018-06-24T14:55:56.222Z,41.69
2018-06-24T14:58:29.362Z,42.70
2018-06-24T15:01:02.392Z,41.19
2018-06-24T15:03:41.537Z,41.44
2018-06-24T15:08:56.119Z,42.79
2018-06-24T15:11:37.638Z,43.12
2018-06-24T15:14:12.171Z,42.99
2018-06-24T15:16:45.336Z,42.75
2018-06-24T15:19:30.483Z,42.76
2018-06-24T15:22:06.418Z,43.21
2018-06-24T15:24:41.629Z,43.71
2018-06-24T15:27:16.863Z,43.93
2018-06-24T15:29:51.707Z,44.09
2018-06-24T15:32:32.159Z,44.36
2018-06-24T15:35:06.026Z,44.49
2018-06-24T15:37:40.858Z,44.25
2018-06-24T15:40:13.845Z,44.28
2018-06-24T15:42:47.294Z,42.79
2018-06-24T15:48:03.549Z,42.60
2018-06-24T15:50:36.663Z,42.62
2018-06-24T15:53:10.885Z,43.69
2018-06-24T15:55:45.915Z,43.11
2018-06-24T15:58:19.154Z,43.49
2018-06-24T16:00:58.249Z,43.20
2018-06-24T16:03:31.197Z,43.51
2018-06-24T16:06:04.607Z,43.50
2018-06-24T16:08:38.909Z,43.95
2018-06-24T16:11:12.146Z,44.54
2018-06-24T16:13:48.770Z,44.37
2018-06-24T16:16:22.046Z,45.00
2018-06-24T16:18:56.332Z,45.75
2018-06-24T16:21:30.520Z,46.30
2018-06-24T16:24:03.655Z,46.32
2018-06-24T16:26:36.878Z,46.42
2018-06-24T16:29:13.980Z,46.81
2018-06-24T16:31:53.329Z,46.71
2018-06-24T16:34:27.047Z,47.50
2018-06-24T16:37:01.828Z,47.63
2018-06-24T16:39:35.192Z,47.62
2018-06-24T16:42:10.746Z,47.47
2018-06-24T16:44:45.776Z,47.83
2018-06-24T16:47:19.089Z,48.54
2018-06-24T16:49:53.321Z,47.95
2018-06-24T16:52:24.630Z,48.53
2018-06-24T16:54:58.612Z,48.42
2018-06-24T16:57:34.854Z,49.02
2018-06-24T17:00:08.273Z,48.09
2018-06-24T17:02:41.445Z,48.24
2018-06-24T17:05:16.743Z,48.33
2018-06-24T17:07:50.472Z,49.12
2018-06-24T17:10:23.528Z,49.30
2018-06-24T17:12:56.817Z,49.02
2018-06-24T17:15:29.994Z,49.22
2018-06-24T17:18:04.165Z,49.85
2018-06-24T17:20:39.178Z,49.81
2018-06-24T17:23:14.108Z,51.27
2018-06-24T17:25:45.136Z,51.17
2018-06-24T17:28:14.931Z,51.79
2018-06-24T17:30:44.444Z,51.87
2018-06-24T17:33:15.368Z,51.92
2018-06-24T17:35:44.934Z,52.33
2018-06-24T17:38:17.986Z,52.65
2018-06-24T17:40:52.461Z,53.04
2018-06-24T17:43:22.578Z,54.04
2018-06-24T17:45:51.974Z,54.55
2018-06-24T17:48:22.213Z,55.03
2018-06-24T17:50:52.128Z,55.65
2018-06-24T17:53:21.215Z,56.31
2018-06-24T17:55:50.455Z,56.24
2018-06-24T17:58:20.206Z,57.14
2018-06-24T18:00:52.044Z,56.93
2018-06-24T18:03:25.428Z,56.71
2018-06-24T18:05:55.776Z,57.51
2018-06-24T18:08:31.752Z,57.94
2018-06-24T18:11:01.088Z,58.17
2018-06-24T18:13:31.739Z,58.52
2018-06-24T18:16:01.378Z,58.87
2018-06-24T18:18:32.015Z,59.75
2018-06-24T18:21:01.447Z,59.66
2018-06-24T18:23:32.392Z,58.31
2018-06-24T18:26:03.536Z,58.78
2018-06-24T18:28:33.221Z,58.17
2018-06-24T18:31:04.229Z,59.40
2018-06-24T18:33:35.067Z,59.68
2018-06-24T18:36:06.509Z,59.60
2018-06-24T18:38:44.137Z,60.74
2018-06-24T18:41:23.008Z,60.13
2018-06-24T18:43:54.031Z,60.42
2018-06-24T18:46:33.730Z,60.48
2018-06-24T18:49:04.651Z,60.29
2018-06-24T18:51:36.493Z,60.95
2018-06-24T18:54:06.687Z,61.41
2018-06-24T18:56:37.082Z,61.25
2018-06-24T18:59:22.391Z,62.01
2018-06-24T19:02:00.204Z,61.89
2018-06-24T19:04:31.923Z,62.05
2018-06-24T19:07:03.001Z,61.76
2018-06-24T19:09:31.960Z,62.25
2018-06-24T19:12:02.164Z,62.23
2018-06-24T19:14:33.124Z,63.00
2018-06-24T19:17:03.277Z,63.16
2018-06-24T19:19:36.108Z,63.23
2018-06-24T19:22:05.337Z,63.18
2018-06-24T19:24:36.289Z,62.95
2018-06-24T19:27:08.415Z,63.42
2018-06-24T19:29:43.390Z,63.75
2018-06-24T19:32:15.093Z,63.89
2018-06-24T19:34:44.431Z,63.79
2018-06-24T19:37:15.008Z,64.04
2018-06-24T19:39:44.995Z,63.78
2018-06-24T19:42:19.683Z,63.74
2018-06-24T19:44:51.417Z,64.45
2018-06-24T19:47:25.260Z,64.92
2018-06-24T19:49:58.907Z,65.69
2018-06-24T19:52:28.738Z,66.25
2018-06-24T19:54:58.388Z,66.75
2018-06-24T19:57:28.136Z,67.83
2018-06-24T20:00:01.594Z,68.26
2018-06-24T20:02:31.925Z,68.54
2018-06-24T20:05:01.611Z,68.99
2018-06-24T20:07:31.636Z,69.27
2018-06-24T20:10:01.777Z,69.60
2018-06-24T20:12:30.997Z,70.08
2018-06-24T20:15:00.977Z,70.29
2018-06-24T20:17:30.586Z,70.79
2018-06-24T20:20:00.147Z,71.14
2018-06-24T20:22:29.253Z,70.93
2018-06-24T20:24:58.697Z,71.47
2018-06-24T20:30:17.780Z,72.54
2018-06-24T20:32:47.120Z,72.88
2018-06-24T20:35:16.160Z,73.11
2018-06-24T20:37:45.331Z,73.23
2018-06-24T20:40:14.386Z,73.68
2018-06-24T20:42:43.445Z,73.66
2018-06-24T20:45:12.550Z,73.86
2018-06-24T20:47:41.697Z,73.48
2018-06-24T20:50:10.725Z,73.34
2018-06-24T20:52:39.536Z,73.89
2018-06-24T20:55:08.467Z,74.09
2018-06-24T20:57:37.323Z,74.46
2018-06-24T21:00:06.974Z,74.12
2018-06-24T21:02:37.120Z,74.64
2018-06-24T21:05:09.444Z,75.20
2018-06-24T21:07:38.857Z,75.31
2018-06-24T21:10:08.017Z,75.40
2018-06-24T21:12:37.219Z,75.47
2018-06-24T21:15:06.497Z,75.29
2018-06-24T21:17:35.738Z,75.53
2018-06-24T21:20:05.145Z,75.53
2018-06-24T21:22:37.498Z,75.61
2018-06-24T21:25:06.576Z,75.50
2018-06-24T21:27:35.547Z,75.29
2018-06-24T21:30:04.744Z,75.16
2018-06-24T21:32:33.628Z,75.66
2018-06-24T21:35:02.674Z,75.81
2018-06-24T21:37:32.696Z,76.01
2018-06-24T21:40:02.806Z,75.71
2018-06-24T21:42:31.746Z,75.54
2018-06-24T21:45:00.749Z,75.30
2018-06-24T21:47:29.580Z,75.58
2018-06-24T21:49:58.228Z,75.42
2018-06-24T21:52:27.025Z,75.16
2018-06-24T21:54:55.754Z,76.53
2018-06-24T21:57:24.583Z,75.48
2018-06-24T21:59:53.365Z,75.70
2018-06-24T22:02:23.350Z,74.90
2018-06-24T22:04:53.212Z,74.46
2018-06-24T22:07:22.358Z,74.51
2018-06-24T22:09:51.695Z,74.25
2018-06-24T22:12:20.611Z,74.86
2018-06-24T22:14:50.102Z,75.07
2018-06-24T22:17:19.058Z,75.39
2018-06-24T22:19:48.015Z,76.04
2018-06-24T22:22:16.924Z,76.08
2018-06-24T22:24:45.727Z,76.17
2018-06-24T22:27:14.404Z,75.94
2018-06-24T22:29:43.216Z,75.68
2018-06-24T22:32:12.205Z,75.81
2018-06-24T22:34:41.040Z,75.84
2018-06-24T22:37:09.814Z,75.31
2018-06-24T22:39:38.651Z,74.54
2018-06-24T22:42:09.659Z,74.90
2018-06-24T22:44:38.602Z,75.40
2018-06-24T22:47:07.516Z,75.39
2018-06-24T22:49:36.616Z,75.28
2018-06-24T22:52:05.602Z,75.44
2018-06-24T22:54:34.531Z,74.41
2018-06-24T23:00:10.073Z,75.10
2018-06-24T23:02:39.437Z,74.98
2018-06-24T23:05:08.829Z,75.15
2018-06-24T23:07:37.772Z,74.25
2018-06-24T23:10:06.760Z,74.19
2018-06-24T23:12:35.779Z,73.80
2018-06-24T23:15:05.284Z,74.05
2018-06-24T23:17:34.182Z,74.62
2018-06-24T23:20:03.169Z,74.65
2018-06-24T23:22:32.091Z,74.81
2018-06-24T23:25:00.958Z,75.92
2018-06-24T23:27:29.810Z,76.21
2018-06-24T23:29:58.789Z,76.55
2018-06-24T23:32:28.077Z,76.45
2018-06-24T23:35:03.601Z,76.45
2018-06-24T23:37:32.556Z,76.72
2018-06-24T23:40:01.293Z,76.85
2018-06-24T23:42:30.246Z,77.36
2018-06-24T23:44:59.143Z,77.84
2018-06-24T23:47:28.115Z,78.06
2018-06-24T23:49:57.301Z,78.15
2018-06-24T23:52:26.228Z,78.83
2018-06-24T23:54:55.068Z,79.05
2018-06-24T23:57:24.020Z,79.15
2018-06-24T23:59:53.030Z,79.43
